createdAt,value
2019-02-20T00:01:30.203Z,101218.84
2019-02-20T00:03:58.467Z,101227.94
2019-02-20T00:06:26.744Z,101225.03
2019-02-20T00:08:55.017Z,101222.43
2019-02-20T00:11:23.295Z,101224.63
2019-02-20T00:13:51.605Z,101224.98
2019-02-20T00:16:19.861Z,101222.84
2019-02-20T00:18:48.139Z,101221.66
2019-02-20T00:21:16.413Z,101226.41
2019-02-20T00:23:44.684Z,101230.27
2019-02-20T00:26:12.963Z,101237.08
2019-02-20T00:28:41.238Z,101227.18
2019-02-20T00:31:09.507Z,101238.42
2019-02-20T00:33:37.780Z,101237.30
2019-02-20T00:36:06.046Z,101239.36
2019-02-20T00:38:34.344Z,101239.27
2019-02-20T00:41:02.618Z,101242.73
2019-02-20T00:43:30.892Z,101241.02
2019-02-20T00:46:09.839Z,101247.11
2019-02-20T00:48:39.729Z,101251.02
2019-02-20T00:51:12.023Z,101259.34
2019-02-20T00:53:42.126Z,101262.70
2019-02-20T00:56:10.360Z,101252.80
2019-02-20T00:58:38.635Z,101254.99
2019-02-20T01:01:06.914Z,101250.56
2019-02-20T01:03:35.177Z,101255.80
2019-02-20T01:06:04.974Z,101258.53
2019-02-20T01:08:33.303Z,101252.48
2019-02-20T01:11:01.599Z,101264.29
2019-02-20T01:13:29.865Z,101266.48
2019-02-20T01:15:58.147Z,101266.28
2019-02-20T01:18:26.436Z,101268.52
2019-02-20T01:20:54.689Z,101272.70
2019-02-20T01:23:22.968Z,101272.02
2019-02-20T01:25:51.218Z,101274.56
2019-02-20T01:28:19.502Z,101268.16
2019-02-20T01:30:47.759Z,101272.91
2019-02-20T01:33:16.619Z,101275.42
2019-02-20T01:35:44.868Z,101272.09
2019-02-20T01:38:13.197Z,101282.28
2019-02-20T01:40:41.467Z,101281.02
2019-02-20T01:43:09.735Z,101282.77
2019-02-20T01:45:38.017Z,101278.95
2019-02-20T01:48:06.298Z,101278.91
2019-02-20T01:50:34.555Z,101273.72
2019-02-20T01:53:09.989Z,101274.69
2019-02-20T01:55:32.811Z,101268.60
2019-02-20T01:58:01.079Z,101271.23
2019-02-20T02:00:29.366Z,101278.91
2019-02-20T02:02:57.656Z,101287.15
2019-02-20T02:05:25.939Z,101286.66
2019-02-20T02:07:54.216Z,101276.19
2019-02-20T02:10:22.476Z,101278.38
2019-02-20T02:12:50.743Z,101278.38
2019-02-20T02:15:20.713Z,101279.23
2019-02-20T02:17:49.048Z,101274.45
2019-02-20T02:20:17.319Z,101274.89
2019-02-20T02:22:45.592Z,101271.84
2019-02-20T02:25:13.873Z,101279.92
2019-02-20T02:27:42.151Z,101280.41
2019-02-20T02:30:12.736Z,101286.41
2019-02-20T02:32:41.010Z,101278.70
2019-02-20T02:35:09.304Z,101282.77
2019-02-20T02:37:37.566Z,101289.70
2019-02-20T02:40:06.794Z,101294.70
2019-02-20T02:42:35.047Z,101288.20
2019-02-20T02:45:03.336Z,101290.72
2019-02-20T02:47:31.597Z,101290.72
2019-02-20T02:49:59.862Z,101285.61
2019-02-20T02:52:28.142Z,101276.92
2019-02-20T02:54:56.408Z,101276.55
2019-02-20T02:57:24.691Z,101280.09
2019-02-20T02:59:52.953Z,101278.87
2019-02-20T03:02:21.236Z,101286.94
2019-02-20T03:04:49.501Z,101286.17
2019-02-20T03:07:17.761Z,101285.85
2019-02-20T03:09:46.399Z,101286.98
2019-02-20T03:12:14.669Z,101287.83
2019-02-20T03:14:42.927Z,101284.05
2019-02-20T03:17:11.202Z,101284.75
2019-02-20T03:19:39.482Z,101285.16
2019-02-20T03:22:07.741Z,101290.72
2019-02-20T03:24:36.020Z,101286.29
2019-02-20T03:27:04.301Z,101296.59
2019-02-20T03:29:32.591Z,101293.47
2019-02-20T03:32:00.884Z,101298.59
2019-02-20T03:34:29.181Z,101295.88
2019-02-20T03:36:57.436Z,101298.78
2019-02-20T03:39:25.712Z,101299.64
2019-02-20T03:41:53.986Z,101302.19
2019-02-20T03:44:22.263Z,101309.05
2019-02-20T03:46:50.532Z,101303.86
2019-02-20T03:49:18.794Z,101308.36
2019-02-20T03:51:47.058Z,101304.39
2019-02-20T03:54:15.329Z,101305.36
2019-02-20T03:56:43.595Z,101307.51
2019-02-20T03:59:11.864Z,101301.95
2019-02-20T04:01:40.143Z,101300.53
2019-02-20T04:04:08.426Z,101303.28
2019-02-20T04:06:36.694Z,101306.69
2019-02-20T04:09:05.933Z,101302.02
2019-02-20T04:11:34.232Z,101298.32
2019-02-20T04:14:02.501Z,101298.62
2019-02-20T04:16:30.771Z,101292.23
2019-02-20T04:18:59.038Z,101303.95
2019-02-20T04:21:27.317Z,101301.66
2019-02-20T04:24:02.440Z,101305.06
2019-02-20T04:26:25.597Z,101300.36
2019-02-20T04:28:53.851Z,101300.91
2019-02-20T04:31:22.120Z,101298.73
2019-02-20T04:33:50.405Z,101296.95
2019-02-20T04:36:18.721Z,101305.06
2019-02-20T04:38:46.954Z,101308.15
2019-02-20T04:41:15.240Z,101305.30
2019-02-20T04:43:43.927Z,101300.18
2019-02-20T04:46:12.193Z,101303.78
2019-02-20T04:48:40.485Z,101312.72
2019-02-20T04:51:08.745Z,101314.98
2019-02-20T04:53:37.009Z,101314.75
2019-02-20T04:56:05.316Z,101320.98
2019-02-20T04:58:33.572Z,101310.31
2019-02-20T05:01:01.839Z,101312.02
2019-02-20T05:03:30.126Z,101310.31
2019-02-20T05:05:58.387Z,101312.53
2019-02-20T05:08:26.679Z,101308.20
2019-02-20T05:10:54.962Z,101312.23
2019-02-20T05:13:23.249Z,101314.23
2019-02-20T05:15:51.493Z,101313.05
2019-02-20T05:18:19.763Z,101316.09
2019-02-20T05:20:48.028Z,101317.73
2019-02-20T05:23:16.308Z,101323.91
2019-02-20T05:25:44.560Z,101324.36
2019-02-20T05:28:12.844Z,101322.66
2019-02-20T05:30:41.107Z,101314.87
2019-02-20T05:33:09.409Z,101325.21
2019-02-20T05:35:37.649Z,101319.54
2019-02-20T05:38:05.909Z,101327.26
2019-02-20T05:40:34.170Z,101327.77
2019-02-20T05:43:02.456Z,101325.84
2019-02-20T05:45:30.725Z,101324.99
2019-02-20T05:47:58.985Z,101327.47
2019-02-20T05:50:27.262Z,101321.91
2019-02-20T05:52:55.539Z,101328.52
2019-02-20T05:55:23.800Z,101331.59
2019-02-20T05:57:52.086Z,101330.81
2019-02-20T06:00:20.353Z,101333.22
2019-02-20T06:02:48.620Z,101331.30
2019-02-20T06:05:16.889Z,101333.74
2019-02-20T06:07:45.145Z,101338.23
2019-02-20T06:10:13.444Z,101347.68
2019-02-20T06:12:41.691Z,101344.27
2019-02-20T06:15:10.318Z,101350.80
2019-02-20T06:17:38.587Z,101350.94
2019-02-20T06:20:09.006Z,101347.83
2019-02-20T06:22:37.273Z,101351.69
2019-02-20T06:25:05.771Z,101347.94
2019-02-20T06:27:34.047Z,101347.86
2019-02-20T06:30:02.505Z,101355.69
2019-02-20T06:32:30.768Z,101359.91
2019-02-20T06:34:59.031Z,101360.88
2019-02-20T06:37:27.303Z,101365.06
2019-02-20T06:39:55.592Z,101365.25
2019-02-20T06:42:23.875Z,101370.81
2019-02-20T06:44:52.133Z,101372.48
2019-02-20T06:47:20.412Z,101378.56
2019-02-20T06:49:48.683Z,101373.30
2019-02-20T06:52:16.954Z,101379.30
2019-02-20T06:54:53.690Z,101376.34
2019-02-20T06:57:15.217Z,101382.79
2019-02-20T06:59:43.479Z,101383.98
2019-02-20T07:02:11.829Z,101393.37
2019-02-20T07:04:40.116Z,101388.83
2019-02-20T07:07:20.345Z,101398.12
2019-02-20T07:10:13.860Z,101391.97
2019-02-20T07:12:48.202Z,101393.85
2019-02-20T07:15:37.273Z,101397.41
2019-02-20T07:18:20.299Z,101394.19
2019-02-20T07:21:01.497Z,101394.80
2019-02-20T07:23:44.755Z,101395.97
2019-02-20T07:26:21.729Z,101405.35
2019-02-20T07:29:10.989Z,101404.20
2019-02-20T07:31:39.268Z,101416.70
2019-02-20T07:34:07.546Z,101415.80
2019-02-20T07:36:35.815Z,101413.14
2019-02-20T07:39:05.531Z,101414.16
2019-02-20T07:41:33.803Z,101414.97
2019-02-20T07:44:02.083Z,101422.91
2019-02-20T07:46:30.361Z,101430.99
2019-02-20T07:48:58.641Z,101431.55
2019-02-20T07:51:26.896Z,101439.23
2019-02-20T07:53:55.163Z,101444.83
2019-02-20T07:56:24.165Z,101443.35
2019-02-20T07:58:52.484Z,101446.91
2019-02-20T08:01:20.748Z,101451.59
2019-02-20T08:03:49.023Z,101457.22
2019-02-20T08:06:17.288Z,101457.59
2019-02-20T08:08:45.577Z,101461.66
2019-02-20T08:11:13.837Z,101471.37
2019-02-20T08:13:42.108Z,101470.00
2019-02-20T08:16:10.372Z,101463.36
2019-02-20T08:18:38.627Z,101468.70
2019-02-20T08:21:06.890Z,101477.51
2019-02-20T08:23:35.155Z,101470.12
2019-02-20T08:26:03.456Z,101477.51
2019-02-20T08:28:31.717Z,101477.51
2019-02-20T08:31:00.006Z,101481.84
2019-02-20T08:33:28.284Z,101481.55
2019-02-20T08:35:56.557Z,101486.73
2019-02-20T08:38:24.823Z,101487.30
2019-02-20T08:40:53.085Z,101497.91
2019-02-20T08:43:21.357Z,101497.58
2019-02-20T08:45:49.635Z,101502.18
2019-02-20T08:48:17.908Z,101501.92
2019-02-20T08:50:46.160Z,101507.27
2019-02-20T08:53:14.441Z,101508.79
2019-02-20T08:55:42.722Z,101515.02
2019-02-20T08:58:10.984Z,101517.14
2019-02-20T09:00:39.251Z,101522.70
2019-02-20T09:03:07.516Z,101524.74
2019-02-20T09:05:35.791Z,101522.19
2019-02-20T09:08:04.077Z,101516.98
2019-02-20T09:10:32.330Z,101513.94
2019-02-20T09:13:00.601Z,101516.79
2019-02-20T09:15:28.865Z,101522.55
2019-02-20T09:17:57.144Z,101521.38
2019-02-20T09:20:25.412Z,101529.75
2019-02-20T09:22:53.683Z,101538.41
2019-02-20T09:25:21.949Z,101539.55
2019-02-20T09:27:50.212Z,101544.75
2019-02-20T09:30:18.474Z,101549.39
2019-02-20T09:32:46.772Z,101550.82
2019-02-20T09:35:14.999Z,101551.34
2019-02-20T09:37:43.277Z,101557.77
2019-02-20T09:40:14.458Z,101558.38
2019-02-20T09:42:43.973Z,101553.83
2019-02-20T09:45:12.245Z,101556.34
2019-02-20T09:47:40.513Z,101558.55
2019-02-20T09:50:09.044Z,101552.69
2019-02-20T09:52:37.330Z,101558.06
2019-02-20T09:55:10.667Z,101553.91
2019-02-20T09:57:38.925Z,101553.91
2019-02-20T10:00:10.352Z,101563.34
2019-02-20T10:02:38.645Z,101566.43
2019-02-20T10:05:08.847Z,101573.63
2019-02-20T10:07:37.109Z,101569.89
2019-02-20T10:10:07.982Z,101575.42
2019-02-20T10:12:36.269Z,101574.41
2019-02-20T10:15:07.551Z,101577.08
2019-02-20T10:17:35.825Z,101580.83
2019-02-20T10:20:05.535Z,101589.81
2019-02-20T10:22:33.799Z,101592.02
2019-02-20T10:25:02.089Z,101590.22
2019-02-20T10:27:30.370Z,101589.45
2019-02-20T10:29:58.667Z,101591.73
2019-02-20T10:32:26.925Z,101598.41
2019-02-20T10:34:55.184Z,101595.87
2019-02-20T10:37:23.433Z,101594.08
2019-02-20T10:39:51.692Z,101605.02
2019-02-20T10:42:19.951Z,101603.84
2019-02-20T10:44:48.215Z,101614.18
2019-02-20T10:47:16.478Z,101606.86
2019-02-20T10:49:44.748Z,101605.11
2019-02-20T10:52:13.017Z,101603.77
2019-02-20T10:54:41.288Z,101607.84
2019-02-20T10:57:09.544Z,101613.20
2019-02-20T10:59:37.799Z,101614.39
2019-02-20T11:02:06.066Z,101619.10
2019-02-20T11:04:34.328Z,101613.08
2019-02-20T11:07:02.586Z,101617.31
2019-02-20T11:09:31.906Z,101613.34
2019-02-20T11:12:00.181Z,101619.33
2019-02-20T11:14:28.445Z,101624.08
2019-02-20T11:16:56.709Z,101618.88
2019-02-20T11:19:24.983Z,101614.06
2019-02-20T11:21:53.264Z,101622.82
2019-02-20T11:24:21.529Z,101622.17
2019-02-20T11:26:54.291Z,101625.52
2019-02-20T11:29:19.780Z,101624.98
2019-02-20T11:31:48.042Z,101615.82
2019-02-20T11:34:16.307Z,101625.27
2019-02-20T11:36:44.570Z,101628.55
2019-02-20T11:39:12.832Z,101629.03
2019-02-20T11:41:41.092Z,101638.98
2019-02-20T11:44:09.359Z,101640.19
2019-02-20T11:46:37.634Z,101636.05
2019-02-20T11:49:05.911Z,101637.34
2019-02-20T11:51:34.190Z,101643.01
2019-02-20T11:54:02.459Z,101646.01
2019-02-20T11:56:30.732Z,101643.13
2019-02-20T11:58:59.006Z,101645.41
2019-02-20T12:01:27.490Z,101639.52
2019-02-20T12:03:55.697Z,101641.05
2019-02-20T12:06:23.960Z,101633.87
2019-02-20T12:08:52.230Z,101637.39
2019-02-20T12:11:20.492Z,101638.34
2019-02-20T12:13:48.765Z,101640.95
2019-02-20T12:16:17.029Z,101642.42
2019-02-20T12:18:45.387Z,101641.35
2019-02-20T12:21:13.619Z,101630.47
2019-02-20T12:23:41.891Z,101627.55
2019-02-20T12:26:10.164Z,101630.11
2019-02-20T12:28:38.435Z,101634.79
2019-02-20T12:31:06.692Z,101634.83
2019-02-20T12:33:34.958Z,101637.13
2019-02-20T12:36:03.228Z,101633.94
2019-02-20T12:38:31.513Z,101635.14
2019-02-20T12:40:59.778Z,101635.92
2019-02-20T12:43:28.052Z,101634.88
2019-02-20T12:45:56.331Z,101630.02
2019-02-20T12:48:24.621Z,101631.92
2019-02-20T12:50:52.883Z,101634.95
2019-02-20T12:53:21.157Z,101633.20
2019-02-20T12:55:49.417Z,101633.20
2019-02-20T12:58:17.742Z,101629.31
2019-02-20T13:00:46.005Z,101633.84
2019-02-20T13:03:14.268Z,101635.67
2019-02-20T13:05:42.572Z,101637.22
2019-02-20T13:08:10.826Z,101634.58
2019-02-20T13:10:39.087Z,101631.50
2019-02-20T13:13:07.446Z,101633.21
2019-02-20T13:15:35.716Z,101631.88
2019-02-20T13:18:03.967Z,101632.47
2019-02-20T13:20:32.233Z,101635.62
2019-02-20T13:23:00.513Z,101634.13
2019-02-20T13:25:28.756Z,101636.36
2019-02-20T13:27:57.015Z,101639.20
2019-02-20T13:30:25.275Z,101637.08
2019-02-20T13:32:53.539Z,101643.06
2019-02-20T13:35:21.807Z,101640.50
2019-02-20T13:37:50.108Z,101634.84
2019-02-20T13:40:18.356Z,101634.22
2019-02-20T13:42:46.590Z,101632.68
2019-02-20T13:45:14.852Z,101634.63
2019-02-20T13:47:43.116Z,101639.55
2019-02-20T13:50:13.020Z,101640.11
2019-02-20T13:52:41.759Z,101638.98
2019-02-20T13:55:10.023Z,101640.18
2019-02-20T13:57:38.292Z,101634.67
2019-02-20T14:00:09.742Z,101628.16
2019-02-20T14:02:37.991Z,101639.69
2019-02-20T14:05:07.993Z,101620.91
2019-02-20T14:07:36.297Z,101622.84
2019-02-20T14:10:10.026Z,101623.00
2019-02-20T14:12:38.303Z,101625.66
2019-02-20T14:15:08.791Z,101622.54
2019-02-20T14:17:37.058Z,101626.45
2019-02-20T14:20:08.150Z,101624.55
2019-02-20T14:22:36.495Z,101624.34
2019-02-20T14:25:07.072Z,101630.78
2019-02-20T14:27:35.375Z,101636.05
2019-02-20T14:30:04.314Z,101631.68
2019-02-20T14:32:32.563Z,101628.43
2019-02-20T14:35:00.841Z,101621.38
2019-02-20T14:37:29.083Z,101615.67
2019-02-20T14:39:58.162Z,101617.41
2019-02-20T14:42:26.411Z,101612.20
2019-02-20T14:44:54.689Z,101619.83
2019-02-20T14:47:22.953Z,101620.62
2019-02-20T14:49:51.217Z,101618.45
2019-02-20T14:52:19.491Z,101620.48
2019-02-20T14:54:47.748Z,101620.27
2019-02-20T14:57:19.612Z,101629.34
2019-02-20T14:59:46.259Z,101627.31
2019-02-20T15:02:16.539Z,101635.19
2019-02-20T15:04:44.546Z,101631.02
2019-02-20T15:07:12.814Z,101629.16
2019-02-20T15:09:41.248Z,101632.57
2019-02-20T15:12:09.680Z,101632.57
2019-02-20T15:14:37.943Z,101630.67
2019-02-20T15:17:07.830Z,101628.52
2019-02-20T15:19:36.150Z,101635.39
2019-02-20T15:22:04.425Z,101635.14
2019-02-20T15:24:32.687Z,101637.02
2019-02-20T15:27:00.943Z,101640.75
2019-02-20T15:29:29.483Z,101646.38
2019-02-20T15:31:57.747Z,101641.16
2019-02-20T15:34:26.034Z,101644.91
2019-02-20T15:36:54.293Z,101648.36
2019-02-20T15:39:22.554Z,101645.98
2019-02-20T15:41:50.822Z,101656.90
2019-02-20T15:44:19.091Z,101651.28
2019-02-20T15:46:47.670Z,101659.51
2019-02-20T15:49:15.908Z,101651.69
2019-02-20T15:51:44.181Z,101654.58
2019-02-20T15:54:12.448Z,101658.44
2019-02-20T15:56:40.725Z,101657.80
2019-02-20T15:59:09.008Z,101652.19
2019-02-20T16:01:37.283Z,101657.35
2019-02-20T16:04:05.733Z,101649.63
2019-02-20T16:06:33.984Z,101653.04
2019-02-20T16:09:02.254Z,101659.29
2019-02-20T16:11:30.514Z,101658.94
2019-02-20T16:13:58.783Z,101652.05
2019-02-20T16:16:28.221Z,101650.61
2019-02-20T16:18:56.583Z,101644.59
2019-02-20T16:21:25.022Z,101648.63
2019-02-20T16:23:53.288Z,101648.58
2019-02-20T16:26:21.549Z,101650.26
2019-02-20T16:28:49.816Z,101651.47
2019-02-20T16:31:18.075Z,101652.77
2019-02-20T16:33:46.448Z,101647.16
2019-02-20T16:36:14.700Z,101652.37
2019-02-20T16:38:43.151Z,101645.80
2019-02-20T16:41:11.433Z,101653.63
2019-02-20T16:43:40.364Z,101644.41
2019-02-20T16:46:08.643Z,101641.94
2019-02-20T16:48:36.902Z,101647.02
2019-02-20T16:51:05.161Z,101644.91
2019-02-20T16:53:33.414Z,101655.69
2019-02-20T16:56:01.746Z,101651.92
2019-02-20T16:58:30.026Z,101658.30
2019-02-20T17:00:58.286Z,101654.56
2019-02-20T17:03:26.583Z,101656.95
2019-02-20T17:05:54.920Z,101661.63
2019-02-20T17:08:23.195Z,101669.98
2019-02-20T17:10:51.472Z,101673.98
2019-02-20T17:13:19.718Z,101680.23
2019-02-20T17:15:48.074Z,101686.84
2019-02-20T17:18:16.337Z,101694.82
2019-02-20T17:20:44.612Z,101691.09
2019-02-20T17:23:13.523Z,101694.45
2019-02-20T17:25:41.814Z,101701.95
2019-02-20T17:28:10.390Z,101704.11
2019-02-20T17:30:38.690Z,101705.83
2019-02-20T17:33:06.974Z,101715.03
2019-02-20T17:35:35.267Z,101700.98
2019-02-20T17:38:03.523Z,101708.88
2019-02-20T17:40:31.799Z,101707.70
2019-02-20T17:43:00.074Z,101715.35
2019-02-20T17:45:28.631Z,101711.57
2019-02-20T17:47:56.893Z,101716.83
2019-02-20T17:50:26.284Z,101722.53
2019-02-20T17:52:54.556Z,101724.73
2019-02-20T17:55:22.814Z,101733.05
2019-02-20T17:57:51.098Z,101732.64
2019-02-20T18:00:21.386Z,101729.30
2019-02-20T18:02:49.603Z,101726.65
2019-02-20T18:05:17.868Z,101727.73
2019-02-20T18:07:49.644Z,101722.13
2019-02-20T18:10:16.121Z,101731.97
2019-02-20T18:12:44.385Z,101731.97
2019-02-20T18:15:13.776Z,101731.44
2019-02-20T18:17:42.136Z,101721.37
2019-02-20T18:20:11.139Z,101726.55
2019-02-20T18:22:39.427Z,101720.47
2019-02-20T18:25:09.909Z,101721.37
2019-02-20T18:27:38.286Z,101721.78
2019-02-20T18:30:09.885Z,101718.16
2019-02-20T18:32:38.138Z,101722.06
2019-02-20T18:35:08.869Z,101730.34
2019-02-20T18:37:37.130Z,101728.54
2019-02-20T18:40:08.229Z,101732.00
2019-02-20T18:42:36.473Z,101737.87
2019-02-20T18:45:07.999Z,101733.55
2019-02-20T18:47:36.283Z,101733.27
2019-02-20T18:50:06.801Z,101737.80
2019-02-20T18:52:35.058Z,101737.11
2019-02-20T18:55:05.738Z,101740.77
2019-02-20T18:57:33.320Z,101739.02
2019-02-20T19:00:01.624Z,101736.45
2019-02-20T19:02:29.856Z,101734.87
2019-02-20T19:04:58.124Z,101737.84
2019-02-20T19:07:26.394Z,101731.41
2019-02-20T19:09:54.658Z,101734.47
2019-02-20T19:12:34.636Z,101727.34
2019-02-20T19:15:20.882Z,101726.45
2019-02-20T19:18:10.231Z,101727.70
2019-02-20T19:20:44.561Z,101721.50
2019-02-20T19:23:30.460Z,101729.69
2019-02-20T19:26:04.771Z,101726.42
2019-02-20T19:28:44.482Z,101729.93
2019-02-20T19:31:17.597Z,101729.34
2019-02-20T19:33:54.599Z,101730.66
2019-02-20T19:36:31.837Z,101734.03
2019-02-20T19:39:33.096Z,101729.63
2019-02-20T19:42:21.045Z,101725.72
2019-02-20T19:45:01.326Z,101724.05
2019-02-20T19:47:50.550Z,101726.57
2019-02-20T19:50:36.911Z,101724.77
2019-02-20T19:53:13.949Z,101721.80
2019-02-20T19:55:48.306Z,101718.80
2019-02-20T19:58:55.370Z,101717.44
2019-02-20T20:01:52.920Z,101716.46
2019-02-20T20:04:30.436Z,101717.55
2019-02-20T20:07:17.795Z,101715.20
2019-02-20T20:09:52.044Z,101716.09
2019-02-20T20:12:29.307Z,101717.77
2019-02-20T20:15:27.860Z,101708.41
2019-02-20T20:18:15.765Z,101708.77
2019-02-20T20:21:01.783Z,101703.28
2019-02-20T20:23:51.078Z,101702.30
2019-02-20T20:26:31.048Z,101701.80
2019-02-20T20:29:06.191Z,101703.11
2019-02-20T20:31:40.503Z,101704.91
2019-02-20T20:34:17.663Z,101707.02
2019-02-20T20:36:51.764Z,101709.62
2019-02-20T20:39:31.989Z,101709.62
2019-02-20T20:42:06.184Z,101708.64
2019-02-20T20:44:58.141Z,101705.27
2019-02-20T20:47:45.873Z,101707.83
2019-02-20T20:50:29.281Z,101698.70
2019-02-20T20:53:06.380Z,101705.22
2019-02-20T20:55:40.324Z,101703.16
2019-02-20T20:58:35.760Z,101706.56
2019-02-20T21:01:26.297Z,101708.23
2019-02-20T21:04:09.883Z,101705.27
2019-02-20T21:06:41.325Z,101703.47
2019-02-20T21:09:15.490Z,101695.16
2019-02-20T21:12:12.486Z,101700.65
2019-02-20T21:15:07.241Z,101692.50
2019-02-20T21:17:58.069Z,101700.28
2019-02-20T21:20:38.274Z,101698.13
2019-02-20T21:23:15.446Z,101704.47
2019-02-20T21:26:07.615Z,101699.66
2019-02-20T21:29:01.263Z,101696.42
2019-02-20T21:31:56.562Z,101692.69
2019-02-20T21:34:44.222Z,101694.00
2019-02-20T21:37:34.499Z,101710.09
2019-02-20T21:40:30.581Z,101699.66
2019-02-20T21:43:20.068Z,101707.88
2019-02-20T21:46:19.709Z,101706.62
2019-02-20T21:48:51.172Z,101720.92
2019-02-20T21:51:22.610Z,101707.57
2019-02-20T21:54:02.691Z,101709.28
2019-02-20T21:56:39.617Z,101709.33
2019-02-20T21:59:13.616Z,101702.36
2019-02-20T22:01:50.553Z,101717.14
2019-02-20T22:04:27.895Z,101711.20
2019-02-20T22:07:02.132Z,101719.02
2019-02-20T22:09:58.250Z,101713.36
2019-02-20T22:12:30.113Z,101713.00
2019-02-20T22:15:01.564Z,101711.20
2019-02-20T22:17:44.792Z,101716.05
2019-02-20T22:20:21.979Z,101713.04
2019-02-20T22:23:08.138Z,101713.40
2019-02-20T22:26:00.157Z,101712.05
2019-02-20T22:28:43.253Z,101713.04
2019-02-20T22:31:32.219Z,101711.83
2019-02-20T22:34:23.004Z,101721.31
2019-02-20T22:37:16.969Z,101720.09
2019-02-20T22:39:51.073Z,101711.87
2019-02-20T22:42:28.127Z,101720.50
2019-02-20T22:45:05.135Z,101713.66
2019-02-20T22:48:04.818Z,101723.73
2019-02-20T22:50:53.951Z,101715.87
2019-02-20T22:53:53.729Z,101714.12
2019-02-20T22:56:33.980Z,101716.89
2019-02-20T22:59:21.830Z,101715.27
2019-02-20T23:01:59.061Z,101715.51
2019-02-20T23:04:34.899Z,101722.13
2019-02-20T23:07:22.810Z,101717.58
2019-02-20T23:09:59.843Z,101708.55
2019-02-20T23:12:46.042Z,101715.55
2019-02-20T23:15:14.311Z,101714.29
2019-02-20T23:17:42.584Z,101708.13
2019-02-20T23:20:10.846Z,101709.08
2019-02-20T23:22:39.109Z,101707.13
2019-02-20T23:25:07.471Z,101714.13
2019-02-20T23:27:35.766Z,101711.57
2019-02-20T23:30:12.994Z,101716.34
2019-02-20T23:32:36.131Z,101717.72
2019-02-20T23:35:04.635Z,101716.02
2019-02-20T23:37:32.916Z,101712.56
2019-02-20T23:40:01.197Z,101723.03
2019-02-20T23:42:29.479Z,101717.53
2019-02-20T23:44:57.744Z,101708.25
2019-02-20T23:47:26.016Z,101707.84
2019-02-20T23:49:56.444Z,101704.50
2019-02-20T23:52:24.303Z,101705.48
2019-02-20T23:54:52.568Z,101706.30
2019-02-20T23:57:20.832Z,101700.27
2019-02-20T23:59:49.113Z,101707.68
